createdAt,value
2017-09-03T00:01:10.049Z,98560.97
2017-09-03T00:03:39.805Z,98557.29
2017-09-03T00:06:09.553Z,98555.81
2017-09-03T00:08:39.305Z,98554.58
2017-09-03T00:11:09.037Z,98552.29
2017-09-03T00:13:39.029Z,98550.53
2017-09-03T00:16:08.778Z,98549.87
2017-09-03T00:18:38.519Z,98547.54
2017-09-03T00:21:08.285Z,98544.55
2017-09-03T00:23:37.828Z,98546.19
2017-09-03T00:26:07.668Z,98541.06
2017-09-03T00:28:37.398Z,98540.63
2017-09-03T00:31:07.158Z,98544.14
2017-09-03T00:33:36.874Z,98542.55
2017-09-03T00:36:06.622Z,98539.55
2017-09-03T00:38:36.353Z,98537.67
2017-09-03T00:41:06.076Z,98541.60
2017-09-03T00:43:35.820Z,98536.73
2017-09-03T00:46:05.567Z,98537.42
2017-09-03T00:48:35.481Z,98531.73
2017-09-03T00:51:05.204Z,98532.27
2017-09-03T00:53:35.023Z,98531.73
2017-09-03T00:56:04.721Z,98532.67
2017-09-03T00:58:34.446Z,98526.98
2017-09-03T01:01:04.197Z,98528.05
2017-09-03T01:03:33.586Z,98525.91
2017-09-03T01:06:02.972Z,98521.98
2017-09-03T01:08:32.710Z,98525.88
2017-09-03T01:11:02.245Z,98525.47
2017-09-03T01:13:31.969Z,98518.72
2017-09-03T01:16:01.718Z,98513.31
2017-09-03T01:18:31.250Z,98511.96
2017-09-03T01:21:00.992Z,98511.02
2017-09-03T01:23:30.728Z,98510.08
2017-09-03T01:26:00.464Z,98509.67
2017-09-03T01:28:30.024Z,98505.36
2017-09-03T01:30:59.751Z,98503.45
2017-09-03T01:33:29.486Z,98497.63
2017-09-03T01:35:59.256Z,98502.53
2017-09-03T01:38:28.968Z,98503.19
2017-09-03T01:40:58.506Z,98502.94
2017-09-03T01:43:28.233Z,98504.42
2017-09-03T01:45:57.956Z,98496.47
2017-09-03T01:48:27.699Z,98501.18
2017-09-03T01:50:57.418Z,98501.34
2017-09-03T01:53:27.175Z,98498.09
2017-09-03T01:55:56.909Z,98499.30
2017-09-03T01:58:26.659Z,98505.11
2017-09-03T02:00:56.390Z,98498.22
2017-09-03T02:03:26.116Z,98493.63
2017-09-03T02:05:55.861Z,98497.13
2017-09-03T02:08:26.445Z,98498.76
2017-09-03T02:10:56.200Z,98503.22
2017-09-03T02:13:26.157Z,98503.76
2017-09-03T02:15:55.896Z,98504.16
2017-09-03T02:18:25.637Z,98504.73
2017-09-03T02:20:55.208Z,98504.45
2017-09-03T02:23:24.958Z,98504.16
2017-09-03T02:25:54.695Z,98501.74
2017-09-03T02:28:24.448Z,98501.33
2017-09-03T02:30:54.172Z,98501.61
2017-09-03T02:33:23.937Z,98505.52
2017-09-03T02:35:54.478Z,98503.63
2017-09-03T02:38:24.253Z,98502.69
2017-09-03T02:40:53.982Z,98503.47
2017-09-03T02:43:23.768Z,98498.60
2017-09-03T02:45:53.509Z,98498.22
2017-09-03T02:48:23.258Z,98505.77
2017-09-03T02:50:53.017Z,98500.77
2017-09-03T02:53:22.750Z,98499.95
2017-09-03T02:55:52.525Z,98499.70
2017-09-03T02:58:22.281Z,98494.95
2017-09-03T03:00:52.016Z,98504.30
2017-09-03T03:03:21.761Z,98489.30
2017-09-03T03:05:51.537Z,98496.59
2017-09-03T03:08:21.288Z,98502.13
2017-09-03T03:10:51.029Z,98496.72
2017-09-03T03:13:20.780Z,98497.00
2017-09-03T03:15:50.511Z,98502.66
2017-09-03T03:18:20.350Z,98499.02
2017-09-03T03:20:50.093Z,98502.13
2017-09-03T03:23:19.822Z,98498.89
2017-09-03T03:25:49.592Z,98502.28
2017-09-03T03:28:19.189Z,98496.05
2017-09-03T03:30:48.945Z,98497.69
2017-09-03T03:33:18.715Z,98502.81
2017-09-03T03:35:48.466Z,98498.34
2017-09-03T03:38:18.229Z,98490.24
2017-09-03T03:40:47.972Z,98499.42
2017-09-03T03:43:17.722Z,98498.47
2017-09-03T03:45:47.514Z,98490.49
2017-09-03T03:48:17.243Z,98490.24
2017-09-03T03:50:47.016Z,98488.89
2017-09-03T03:53:16.760Z,98491.72
2017-09-03T03:55:46.580Z,98488.33
2017-09-03T03:58:16.324Z,98486.03
2017-09-03T04:00:46.076Z,98486.56
2017-09-03T04:03:15.861Z,98486.44
2017-09-03T04:05:45.618Z,98487.92
2017-09-03T04:08:15.365Z,98485.75
2017-09-03T04:10:45.101Z,98491.03
2017-09-03T04:13:14.910Z,98485.63
2017-09-03T04:15:44.724Z,98479.81
2017-09-03T04:18:14.491Z,98483.05
2017-09-03T04:20:44.214Z,98478.59
2017-09-03T04:23:13.953Z,98482.36
2017-09-03T04:25:43.688Z,98480.47
2017-09-03T04:28:13.422Z,98481.70
2017-09-03T04:30:43.164Z,98476.70
2017-09-03T04:33:12.914Z,98484.40
2017-09-03T04:35:42.645Z,98479.53
2017-09-03T04:38:12.387Z,98485.75
2017-09-03T04:40:42.125Z,98482.92
2017-09-03T04:43:11.871Z,98482.39
2017-09-03T04:45:41.684Z,98477.64
2017-09-03T04:48:11.425Z,98476.16
2017-09-03T04:50:41.173Z,98481.03
2017-09-03T04:53:10.955Z,98483.20
2017-09-03T04:55:40.691Z,98486.59
2017-09-03T04:58:10.441Z,98483.89
2017-09-03T05:00:40.179Z,98484.17
2017-09-03T05:03:09.932Z,98484.70
2017-09-03T05:05:39.671Z,98495.39
2017-09-03T05:08:09.415Z,98489.16
2017-09-03T05:10:39.169Z,98486.74
2017-09-03T05:13:08.905Z,98491.89
2017-09-03T05:15:38.628Z,98486.89
2017-09-03T05:18:08.377Z,98489.09
2017-09-03T05:20:38.104Z,98491.66
2017-09-03T05:23:07.843Z,98490.56
2017-09-03T05:25:37.597Z,98489.23
2017-09-03T05:28:07.346Z,98489.77
2017-09-03T05:30:37.114Z,98497.63
2017-09-03T05:33:06.845Z,98496.95
2017-09-03T05:35:36.604Z,98494.66
2017-09-03T05:38:06.313Z,98497.10
2017-09-03T05:40:36.033Z,98502.26
2017-09-03T05:43:05.760Z,98499.57
2017-09-03T05:45:35.498Z,98500.66
2017-09-03T05:48:05.233Z,98505.41
2017-09-03T05:50:34.966Z,98510.30
2017-09-03T05:53:04.732Z,98506.39
2017-09-03T05:55:34.477Z,98510.98
2017-09-03T05:58:04.200Z,98515.30
2017-09-03T06:00:33.963Z,98518.56
2017-09-03T06:03:03.701Z,98520.59
2017-09-03T06:05:33.436Z,98520.33
2017-09-03T06:08:03.181Z,98522.10
2017-09-03T06:10:32.917Z,98528.44
2017-09-03T06:13:03.631Z,98522.22
2017-09-03T06:15:33.356Z,98518.17
2017-09-03T06:18:03.096Z,98522.11
2017-09-03T06:20:32.840Z,98519.39
2017-09-03T06:23:02.594Z,98527.11
2017-09-03T06:25:32.344Z,98530.20
2017-09-03T06:28:02.097Z,98529.95
2017-09-03T06:30:31.840Z,98534.80
2017-09-03T06:33:01.585Z,98535.35
2017-09-03T06:35:31.333Z,98530.86
2017-09-03T06:38:01.096Z,98540.58
2017-09-03T06:40:30.840Z,98543.52
2017-09-03T06:43:00.679Z,98542.47
2017-09-03T06:45:30.132Z,98548.41
2017-09-03T06:47:59.864Z,98552.44
2017-09-03T06:50:29.318Z,98550.52
2017-09-03T06:52:59.123Z,98557.68
2017-09-03T06:55:28.866Z,98558.16
2017-09-03T06:57:58.731Z,98563.59
2017-09-03T07:00:28.169Z,98563.62
2017-09-03T07:02:57.936Z,98559.34
2017-09-03T07:05:27.373Z,98559.92
2017-09-03T07:07:57.106Z,98559.09
2017-09-03T07:10:27.473Z,98553.49
2017-09-03T07:12:57.204Z,98558.17
2017-09-03T07:15:26.813Z,98561.64
2017-09-03T07:17:56.263Z,98561.41
2017-09-03T07:20:25.724Z,98558.22
2017-09-03T07:22:55.169Z,98558.63
2017-09-03T07:25:24.640Z,98561.04
2017-09-03T07:27:54.125Z,98558.87
2017-09-03T07:30:23.604Z,98559.63
2017-09-03T07:32:53.058Z,98560.55
2017-09-03T07:35:22.554Z,98564.59
2017-09-03T07:37:52.002Z,98559.94
2017-09-03T07:40:21.553Z,98558.33
2017-09-03T07:42:50.991Z,98559.03
2017-09-03T07:45:20.476Z,98556.68
2017-09-03T07:47:49.917Z,98563.36
2017-09-03T07:50:19.391Z,98559.14
2017-09-03T07:52:48.816Z,98557.84
2017-09-03T07:55:18.303Z,98563.22
2017-09-03T07:57:48.666Z,98562.15
2017-09-03T08:00:18.141Z,98563.31
2017-09-03T08:02:47.387Z,98562.88
2017-09-03T08:05:16.865Z,98565.02
2017-09-03T08:07:46.301Z,98563.55
2017-09-03T08:10:15.788Z,98561.73
2017-09-03T08:12:45.240Z,98564.91
2017-09-03T08:15:14.756Z,98565.45
2017-09-03T08:17:44.205Z,98568.48
2017-09-03T08:20:13.690Z,98568.45
2017-09-03T08:22:43.133Z,98568.87
2017-09-03T08:25:12.646Z,98569.27
2017-09-03T08:27:42.088Z,98574.65
2017-09-03T08:30:11.597Z,98572.38
2017-09-03T08:32:41.054Z,98578.50
2017-09-03T08:35:10.536Z,98574.13
2017-09-03T08:37:39.984Z,98568.16
2017-09-03T08:40:09.295Z,98575.16
2017-09-03T08:42:38.741Z,98569.80
2017-09-03T08:45:08.227Z,98562.22
2017-09-03T08:47:37.665Z,98563.86
2017-09-03T08:50:07.154Z,98563.17
2017-09-03T08:52:36.606Z,98564.18
2017-09-03T08:55:06.079Z,98562.22
2017-09-03T08:57:35.506Z,98558.30
2017-09-03T09:00:05.048Z,98557.42
2017-09-03T09:02:34.341Z,98562.78
2017-09-03T09:05:03.831Z,98562.94
2017-09-03T09:07:33.280Z,98566.30
2017-09-03T09:10:02.797Z,98568.50
2017-09-03T09:12:32.335Z,98573.66
2017-09-03T09:15:01.802Z,98571.28
2017-09-03T09:17:31.259Z,98574.74
2017-09-03T09:20:00.580Z,98576.34
2017-09-03T09:22:29.910Z,98571.20
2017-09-03T09:24:58.820Z,98567.48
2017-09-03T09:27:28.085Z,98571.75
2017-09-03T09:29:57.438Z,98566.15
2017-09-03T09:32:26.865Z,98569.69
2017-09-03T09:34:56.337Z,98569.14
2017-09-03T09:37:25.776Z,98572.37
2017-09-03T09:39:55.255Z,98576.48
2017-09-03T09:42:24.690Z,98581.44
2017-09-03T09:44:54.133Z,98574.05
2017-09-03T09:47:23.416Z,98577.63
2017-09-03T09:49:52.956Z,98571.70
2017-09-03T09:52:22.519Z,98573.81
2017-09-03T09:54:51.792Z,98576.88
2017-09-03T09:57:21.076Z,98575.63
2017-09-03T09:59:50.329Z,98581.34
2017-09-03T10:02:19.905Z,98579.43
2017-09-03T10:04:49.158Z,98577.30
2017-09-03T10:07:18.843Z,98578.69
2017-09-03T10:09:48.588Z,98576.61
2017-09-03T10:12:18.629Z,98581.92
2017-09-03T10:14:48.280Z,98583.37
2017-09-03T10:17:17.772Z,98587.16
2017-09-03T10:19:47.189Z,98581.98
2017-09-03T10:22:16.939Z,98585.55
2017-09-03T10:24:46.320Z,98582.02
2017-09-03T10:27:15.782Z,98579.36
2017-09-03T10:29:45.217Z,98583.58
2017-09-03T10:32:14.670Z,98584.52
2017-09-03T10:34:44.124Z,98581.45
2017-09-03T10:37:13.574Z,98582.45
2017-09-03T10:39:43.021Z,98576.88
2017-09-03T10:42:12.470Z,98578.62
2017-09-03T10:44:41.929Z,98583.20
2017-09-03T10:47:11.496Z,98575.19
2017-09-03T10:49:40.926Z,98578.45
2017-09-03T10:52:10.369Z,98579.13
2017-09-03T10:54:39.830Z,98579.69
2017-09-03T10:57:09.273Z,98580.42
2017-09-03T10:59:38.825Z,98574.52
2017-09-03T11:02:08.296Z,98578.59
2017-09-03T11:04:38.002Z,98573.17
2017-09-03T11:07:07.464Z,98574.81
2017-09-03T11:09:36.952Z,98570.77
2017-09-03T11:12:06.385Z,98568.92
2017-09-03T11:14:36.212Z,98567.34
2017-09-03T11:17:05.684Z,98570.80
2017-09-03T11:19:35.129Z,98569.91
2017-09-03T11:22:04.572Z,98571.45
2017-09-03T11:24:34.106Z,98575.20
2017-09-03T11:27:03.650Z,98567.37
2017-09-03T11:29:33.386Z,98562.84
2017-09-03T11:32:03.165Z,98575.13
2017-09-03T11:34:32.945Z,98569.36
2017-09-03T11:37:02.392Z,98563.30
2017-09-03T11:39:31.850Z,98567.75
2017-09-03T11:42:01.292Z,98564.17
2017-09-03T11:44:30.737Z,98562.08
2017-09-03T11:47:00.215Z,98555.16
2017-09-03T11:49:29.933Z,98566.41
2017-09-03T11:51:59.404Z,98561.41
2017-09-03T11:54:28.868Z,98561.19
2017-09-03T11:56:58.309Z,98559.83
2017-09-03T11:59:27.745Z,98564.35
2017-09-03T12:01:57.233Z,98552.59
2017-09-03T12:04:26.784Z,98556.50
2017-09-03T12:06:56.217Z,98553.91
2017-09-03T12:09:25.698Z,98556.05
2017-09-03T12:11:55.401Z,98559.59
2017-09-03T12:14:24.836Z,98556.23
2017-09-03T12:16:54.276Z,98553.16
2017-09-03T12:19:23.726Z,98543.91
2017-09-03T12:21:53.164Z,98545.37
2017-09-03T12:24:22.620Z,98535.80
2017-09-03T12:26:52.063Z,98539.92
2017-09-03T12:29:21.547Z,98533.48
2017-09-03T12:31:50.740Z,98526.45
2017-09-03T12:34:20.195Z,98537.70
2017-09-03T12:36:49.620Z,98526.14
2017-09-03T12:39:19.068Z,98522.64
2017-09-03T12:41:48.571Z,98517.54
2017-09-03T12:44:19.598Z,98516.02
2017-09-03T12:46:49.077Z,98512.30
2017-09-03T12:49:18.513Z,98509.66
2017-09-03T12:51:47.797Z,98510.19
2017-09-03T12:54:17.255Z,98510.70
2017-09-03T12:56:46.680Z,98512.13
2017-09-03T12:59:16.129Z,98505.18
2017-09-03T13:01:45.612Z,98507.68
2017-09-03T13:04:15.064Z,98497.48
2017-09-03T13:06:44.496Z,98492.50
2017-09-03T13:09:13.938Z,98496.87
2017-09-03T13:11:43.383Z,98486.61
2017-09-03T13:14:12.820Z,98489.81
2017-09-03T13:16:42.270Z,98490.96
2017-09-03T13:19:11.553Z,98494.23
2017-09-03T13:21:40.841Z,98486.74
2017-09-03T13:24:10.273Z,98483.62
2017-09-03T13:26:39.530Z,98488.98
2017-09-03T13:29:08.977Z,98482.87
2017-09-03T13:31:38.411Z,98480.20
2017-09-03T13:34:07.857Z,98477.55
2017-09-03T13:36:37.297Z,98470.20
2017-09-03T13:39:06.732Z,98465.92
2017-09-03T13:41:36.173Z,98469.28
2017-09-03T13:44:05.933Z,98465.09
2017-09-03T13:46:35.388Z,98467.04
2017-09-03T13:49:04.852Z,98470.16
2017-09-03T13:51:34.394Z,98467.12
2017-09-03T13:54:03.861Z,98463.32
2017-09-03T13:56:33.113Z,98456.17
2017-09-03T13:59:02.564Z,98464.41
2017-09-03T14:01:32.002Z,98464.69
2017-09-03T14:04:01.444Z,98461.72
2017-09-03T14:06:30.894Z,98460.75
2017-09-03T14:09:00.347Z,98455.94
2017-09-03T14:11:29.801Z,98456.20
2017-09-03T14:13:59.273Z,98461.52
2017-09-03T14:16:28.740Z,98452.67
2017-09-03T14:18:58.199Z,98444.94
2017-09-03T14:21:27.448Z,98450.02
2017-09-03T14:23:56.893Z,98445.30
2017-09-03T14:26:26.479Z,98449.62
2017-09-03T14:28:55.921Z,98446.67
2017-09-03T14:31:25.534Z,98451.76
2017-09-03T14:33:55.112Z,98454.05
2017-09-03T14:36:24.593Z,98467.64
2017-09-03T14:38:54.037Z,98457.67
2017-09-03T14:41:23.510Z,98462.74
2017-09-03T14:43:52.953Z,98474.09
2017-09-03T14:46:22.394Z,98472.03
2017-09-03T14:48:51.906Z,98478.47
2017-09-03T14:51:21.376Z,98471.77
2017-09-03T14:53:50.810Z,98491.66
2017-09-03T14:56:20.236Z,98485.52
2017-09-03T14:58:49.693Z,98495.41
2017-09-03T15:01:19.131Z,98492.54
2017-09-03T15:03:48.672Z,98478.80
2017-09-03T15:06:18.132Z,98485.63
2017-09-03T15:08:47.571Z,98490.30
2017-09-03T15:11:17.005Z,98502.78
2017-09-03T15:13:46.481Z,98509.55
2017-09-03T15:16:15.927Z,98520.55
2017-09-03T15:18:45.394Z,98534.58
2017-09-03T15:21:14.833Z,98541.48
2017-09-03T15:23:44.085Z,98551.58
2017-09-03T15:26:13.553Z,98548.66
2017-09-03T15:28:43.007Z,98555.76
2017-09-03T15:31:12.654Z,98565.63
2017-09-03T15:33:42.106Z,98568.02
2017-09-03T15:36:11.586Z,98577.12
2017-09-03T15:38:41.014Z,98567.97
2017-09-03T15:41:10.453Z,98565.78
2017-09-03T15:43:39.904Z,98568.95
2017-09-03T15:46:09.353Z,98575.77
2017-09-03T15:48:38.809Z,98572.17
2017-09-03T15:51:08.245Z,98572.76
2017-09-03T15:53:37.506Z,98575.53
2017-09-03T15:56:06.973Z,98577.85
2017-09-03T15:58:36.428Z,98570.56
2017-09-03T16:01:05.881Z,98572.92
2017-09-03T16:03:35.426Z,98571.85
2017-09-03T16:06:05.160Z,98578.78
2017-09-03T16:08:34.621Z,98584.34
2017-09-03T16:11:04.062Z,98571.30
2017-09-03T16:13:33.797Z,98561.80
2017-09-03T16:16:03.603Z,98565.71
2017-09-03T16:18:33.324Z,98569.78
2017-09-03T16:21:03.045Z,98571.95
2017-09-03T16:23:32.788Z,98569.25
2017-09-03T16:26:02.557Z,98566.02
2017-09-03T16:28:32.328Z,98571.45
2017-09-03T16:31:02.067Z,98570.64
2017-09-03T16:33:31.508Z,98571.58
2017-09-03T16:36:01.255Z,98572.97
2017-09-03T16:38:31.132Z,98574.30
2017-09-03T16:41:00.563Z,98573.91
2017-09-03T16:43:30.290Z,98572.86
2017-09-03T16:46:00.028Z,98573.00
2017-09-03T16:48:29.562Z,98575.44
2017-09-03T16:50:59.113Z,98580.30
2017-09-03T16:53:28.657Z,98584.77
2017-09-03T16:55:58.380Z,98575.57
2017-09-03T16:58:27.907Z,98579.61
2017-09-03T17:00:57.674Z,98575.30
2017-09-03T17:03:26.910Z,98582.48
2017-09-03T17:05:56.168Z,98590.75
2017-09-03T17:08:25.709Z,98586.67
2017-09-03T17:10:55.250Z,98590.86
2017-09-03T17:13:24.812Z,98593.41
2017-09-03T17:15:54.349Z,98595.59
2017-09-03T17:18:23.877Z,98595.70
2017-09-03T17:20:53.789Z,98605.02
2017-09-03T17:23:23.328Z,98600.13
2017-09-03T17:25:52.869Z,98597.80
2017-09-03T17:28:22.417Z,98604.00
2017-09-03T17:30:55.470Z,98604.95
2017-09-03T17:33:25.033Z,98601.42
2017-09-03T17:35:56.410Z,98597.08
2017-09-03T17:38:25.959Z,98599.22
2017-09-03T17:44:01.116Z,98607.13
2017-09-03T17:46:46.415Z,98611.59
2017-09-03T17:49:16.100Z,98609.26
2017-09-03T17:51:45.628Z,98613.85
2017-09-03T17:54:15.205Z,98618.97
2017-09-03T17:56:45.287Z,98619.63
2017-09-03T17:59:14.833Z,98617.95
2017-09-03T18:01:44.398Z,98601.85
2017-09-03T18:04:14.206Z,98610.20
2017-09-03T18:06:43.741Z,98612.73
2017-09-03T18:09:14.214Z,98619.86
2017-09-03T18:11:43.849Z,98620.92
2017-09-03T18:14:13.381Z,98623.87
2017-09-03T18:16:42.940Z,98626.02
2017-09-03T18:19:12.482Z,98627.91
2017-09-03T18:21:42.044Z,98638.59
2017-09-03T18:24:11.601Z,98637.49
2017-09-03T18:26:41.246Z,98635.78
2017-09-03T18:29:11.293Z,98646.22
2017-09-03T18:31:41.237Z,98648.20
2017-09-03T18:34:10.885Z,98644.64
2017-09-03T18:36:52.477Z,98644.11
2017-09-03T18:39:23.011Z,98646.89
2017-09-03T18:41:52.952Z,98662.27
2017-09-03T18:44:27.795Z,98660.45
2017-09-03T18:46:57.364Z,98672.95
2017-09-03T18:49:28.314Z,98673.67
2017-09-03T18:55:04.288Z,98673.09
2017-09-03T19:00:37.481Z,98671.05
2017-09-03T19:03:10.964Z,98681.07
2017-09-03T19:05:42.011Z,98688.39
2017-09-03T19:08:11.643Z,98694.30
2017-09-03T19:10:41.363Z,98694.91
2017-09-03T19:13:11.001Z,98694.03
2017-09-03T19:15:40.608Z,98693.05
2017-09-03T19:18:10.582Z,98699.33
2017-09-03T19:20:39.973Z,98693.75
2017-09-03T19:23:09.560Z,98694.00
2017-09-03T19:25:39.189Z,98698.41
2017-09-03T19:28:08.746Z,98702.67
2017-09-03T19:30:39.055Z,98701.01
2017-09-03T19:33:08.816Z,98701.92
2017-09-03T19:35:38.341Z,98702.43
2017-09-03T19:38:09.436Z,98703.31
2017-09-03T19:40:39.023Z,98700.16
2017-09-03T19:43:08.768Z,98702.55
2017-09-03T19:45:38.502Z,98704.40
2017-09-03T19:48:08.240Z,98697.89
2017-09-03T19:50:38.051Z,98702.97
2017-09-03T19:53:07.813Z,98701.50
2017-09-03T19:55:37.572Z,98706.17
2017-09-03T19:58:07.327Z,98703.16
2017-09-03T20:00:37.066Z,98695.84
2017-09-03T20:03:06.832Z,98698.74
2017-09-03T20:05:36.615Z,98700.52
2017-09-03T20:08:06.985Z,98695.53
2017-09-03T20:10:36.715Z,98697.96
2017-09-03T20:13:06.977Z,98696.30
2017-09-03T20:15:36.771Z,98700.28
2017-09-03T20:18:06.505Z,98696.33
2017-09-03T20:20:36.250Z,98696.42
2017-09-03T20:23:05.967Z,98695.89
2017-09-03T20:25:35.699Z,98696.95
2017-09-03T20:28:05.429Z,98688.02
2017-09-03T20:30:35.167Z,98689.34
2017-09-03T20:33:04.897Z,98683.54
2017-09-03T20:35:34.847Z,98687.28
2017-09-03T20:38:04.570Z,98690.69
2017-09-03T20:40:34.310Z,98692.38
2017-09-03T20:43:04.052Z,98690.19
2017-09-03T20:45:33.797Z,98683.25
2017-09-03T20:48:03.541Z,98681.20
2017-09-03T20:50:33.265Z,98683.45
2017-09-03T20:53:03.013Z,98681.49
2017-09-03T20:55:32.795Z,98678.36
2017-09-03T20:58:02.526Z,98677.30
2017-09-03T21:00:32.277Z,98682.28
2017-09-03T21:03:01.824Z,98676.48
2017-09-03T21:05:31.387Z,98681.08
2017-09-03T21:08:00.901Z,98685.65
2017-09-03T21:10:30.619Z,98685.62
2017-09-03T21:13:00.339Z,98692.09
2017-09-03T21:15:30.069Z,98691.86
2017-09-03T21:17:59.785Z,98690.39
2017-09-03T21:20:29.513Z,98692.41
2017-09-03T21:22:59.248Z,98697.33
2017-09-03T21:25:28.999Z,98695.59
2017-09-03T21:27:58.719Z,98692.94
2017-09-03T21:30:29.515Z,98689.50
2017-09-03T21:32:59.257Z,98684.55
2017-09-03T21:35:28.978Z,98679.34
2017-09-03T21:37:58.701Z,98681.94
2017-09-03T21:40:28.508Z,98685.36
2017-09-03T21:42:58.241Z,98687.29
2017-09-03T21:45:27.960Z,98691.36
2017-09-03T21:47:57.680Z,98690.97
2017-09-03T21:50:27.493Z,98691.55
2017-09-03T21:52:57.205Z,98691.70
2017-09-03T21:55:26.943Z,98695.13
2017-09-03T21:57:56.660Z,98688.28
2017-09-03T22:00:26.388Z,98689.42
2017-09-03T22:02:55.970Z,98684.84
2017-09-03T22:05:25.685Z,98684.49
2017-09-03T22:07:55.578Z,98688.97
2017-09-03T22:10:25.381Z,98689.28
2017-09-03T22:12:55.114Z,98689.58
2017-09-03T22:15:24.832Z,98679.45
2017-09-03T22:17:54.729Z,98679.05
2017-09-03T22:20:24.457Z,98675.16
2017-09-03T22:22:54.226Z,98673.52
2017-09-03T22:25:23.976Z,98683.09
2017-09-03T22:27:53.695Z,98674.21
2017-09-03T22:30:23.489Z,98681.60
2017-09-03T22:32:53.220Z,98673.80
2017-09-03T22:35:23.064Z,98673.66
2017-09-03T22:37:52.855Z,98675.97
2017-09-03T22:40:22.680Z,98679.20
2017-09-03T22:42:52.217Z,98685.36
2017-09-03T22:45:22.003Z,98680.38
2017-09-03T22:47:51.533Z,98680.06
2017-09-03T22:50:21.480Z,98677.84
2017-09-03T22:52:51.200Z,98685.23
2017-09-03T22:55:20.990Z,98688.67
2017-09-03T22:57:50.692Z,98687.85
2017-09-03T23:00:20.483Z,98691.70
2017-09-03T23:02:49.817Z,98692.92
2017-09-03T23:05:19.403Z,98687.01
2017-09-03T23:07:49.136Z,98687.83
2017-09-03T23:10:18.918Z,98687.53
2017-09-03T23:12:48.628Z,98692.81
2017-09-03T23:15:18.423Z,98694.28
2017-09-03T23:17:48.147Z,98687.30
2017-09-03T23:20:18.096Z,98691.47
2017-09-03T23:22:47.804Z,98695.22
2017-09-03T23:25:17.390Z,98680.39
2017-09-03T23:27:47.863Z,98690.52
2017-09-03T23:30:17.781Z,98682.13
2017-09-03T23:32:47.497Z,98674.54
2017-09-03T23:35:17.267Z,98678.91
2017-09-03T23:37:47.048Z,98673.56
2017-09-03T23:40:16.631Z,98678.52
2017-09-03T23:42:46.357Z,98673.66
2017-09-03T23:45:16.131Z,98678.73
2017-09-03T23:47:45.856Z,98676.08
2017-09-03T23:50:15.618Z,98682.55
2017-09-03T23:52:45.348Z,98683.25
2017-09-03T23:55:15.198Z,98687.17
2017-09-03T23:57:44.929Z,98684.50
